松山國際航空站 - ATIS

METAR RCSS 010530Z 32013G25KT 290V350 9999 FEW015 FEW020CB SCT050 BKN200 34/26 Q1002 NOSIG RMK 32010KT/R10 CB SE-S A2960=

站台狀態:Online
最後更新:2018-08-15 05:45:01